Time;durP1;ratioP1;P1;durP2;ratioP2;P2;SDS_P1;SDS_P2;PMS_P1;PMS_P2;Temp;Humidity;BMP_temperature;BMP_pressure;BME280_temperature;BME280_humidity;BME280_pressure;Samples;Min_cycle;Max_cycle;Signal;HPM_P1;HPM_P2
2023/10/14 00:02:22;;;;;;;5.20;2.97;;;;;;;26.94;26.12;98021.59;6972866;28;20210;-81
2023/10/14 00:05:45;;;;;;;3.90;3.03;;;;;;;26.93;26.25;98044.03;6951512;28;20227;-78
2023/10/14 00:09:11;;;;;;;4.57;3.00;;;;;;;27.22;25.72;98042.22;6941463;28;20748;-79
2023/10/14 00:12:34;;;;;;;4.60;3.27;;;;;;;27.00;26.27;98030.50;6942026;28;20289;-79
2023/10/14 00:15:55;;;;;;;8.43;3.20;;;;;;;26.91;26.23;98025.03;6946895;28;20580;-79
2023/10/14 00:19:18;;;;;;;4.93;2.93;;;;;;;26.80;26.71;98037.56;6937016;28;20976;-78
2023/10/14 00:22:41;;;;;;;4.30;2.90;;;;;;;26.42;27.54;98039.34;6939487;28;20211;-79
2023/10/14 00:26:06;;;;;;;6.77;3.07;;;;;;;26.71;27.35;98049.78;6968554;28;20210;-80
2023/10/14 00:29:29;;;;;;;4.10;3.10;;;;;;;26.48;28.01;98037.25;6963321;28;20211;-80
2023/10/14 00:32:50;;;;;;;5.73;3.30;;;;;;;26.62;27.93;98037.91;6957225;28;20211;-81
2023/10/14 00:36:13;;;;;;;6.17;3.90;;;;;;;25.73;29.90;97989.84;6970075;28;20250;-80
2023/10/14 00:39:36;;;;;;;5.23;3.77;;;;;;;26.39;29.90;98039.19;6972374;28;20208;-80
2023/10/14 00:42:58;;;;;;;6.60;3.80;;;;;;;25.97;31.08;97999.34;6967700;28;20199;-81
2023/10/14 00:46:23;;;;;;;6.60;3.97;;;;;;;26.73;30.21;98026.16;6970345;28;20224;-80
2023/10/14 00:49:48;;;;;;;6.10;3.27;;;;;;;27.08;29.99;98005.56;6967904;28;20214;-80
2023/10/14 00:53:09;;;;;;;4.00;3.43;;;;;;;26.87;30.08;98007.44;6947362;28;20569;-81
2023/10/14 00:56:33;;;;;;;5.93;3.57;;;;;;;26.75;30.16;98001.78;6974227;28;20235;-81
2023/10/14 00:59:55;;;;;;;4.87;3.43;;;;;;;25.91;32.07;98011.69;6964756;28;20222;-80
2023/10/14 01:03:17;;;;;;;5.80;3.50;;;;;;;26.06;32.28;98013.97;6960917;28;20249;-81
2023/10/14 01:06:53;;;;;;;6.03;4.20;;;;;;;26.33;33.86;98024.72;6968496;28;20215;-81
2023/10/14 01:10:24;;;;;;;5.87;4.23;;;;;;;26.03;35.93;98022.09;6959583;28;20273;-80
2023/10/14 01:13:47;;;;;;;7.23;4.60;;;;;;;26.17;36.19;98020.00;6948035;28;20203;-80
2023/10/14 01:17:09;;;;;;;6.93;4.70;;;;;;;26.31;36.59;98028.97;6974717;28;20253;-80
2023/10/14 01:20:37;;;;;;;6.97;4.43;;;;;;;26.27;37.71;98014.16;6959760;28;20623;-81
2023/10/14 01:24:00;;;;;;;6.70;4.80;;;;;;;26.40;38.49;98010.41;6944218;28;20197;-81
2023/10/14 01:27:24;;;;;;;7.27;5.03;;;;;;;25.97;38.90;97974.50;6929651;28;20303;-81
2023/10/14 01:31:05;;;;;;;8.43;4.73;;;;;;;26.04;39.55;97994.16;6937094;28;20203;-81
2023/10/14 01:34:29;;;;;;;7.83;5.00;;;;;;;25.76;40.18;98008.53;6966307;28;20211;-82
2023/10/14 01:37:51;;;;;;;9.90;5.40;;;;;;;25.32;41.61;98015.06;6921308;28;20223;-81
2023/10/14 01:41:14;;;;;;;9.83;4.90;;;;;;;25.31;42.18;98009.88;6929038;28;20205;-80
2023/10/14 01:44:36;;;;;;;6.53;4.63;;;;;;;25.38;42.00;98024.84;6947676;28;20293;-81
2023/10/14 01:48:12;;;;;;;6.17;4.80;;;;;;;25.34;42.38;98034.06;6962207;28;20210;-81
2023/10/14 01:51:33;;;;;;;6.13;5.00;;;;;;;25.25;42.59;98033.22;6956638;28;20216;-81
2023/10/14 01:54:55;;;;;;;8.73;5.47;;;;;;;25.12;42.87;98045.16;6944467;28;20229;-81
2023/10/14 01:58:29;;;;;;;7.70;5.40;;;;;;;25.26;42.89;98027.38;6945263;28;20227;-80
2023/10/14 02:01:51;;;;;;;8.27;5.03;;;;;;;25.61;41.98;98034.66;6950337;28;20203;-81
2023/10/14 02:05:15;;;;;;;10.40;5.90;;;;;;;25.42;42.49;98025.03;6959532;28;20215;-80
2023/10/14 02:08:37;;;;;;;5.90;5.33;;;;;;;25.40;42.29;98024.50;6945169;28;20203;-81
2023/10/14 02:11:58;;;;;;;7.27;5.30;;;;;;;25.69;41.94;98033.06;6945046;28;20339;-80
2023/10/14 02:15:23;;;;;;;7.83;5.10;;;;;;;25.74;42.04;98017.16;6954882;28;20236;-81
2023/10/14 02:18:46;;;;;;;5.37;4.87;;;;;;;25.51;42.16;98012.88;6939097;28;20212;-81
2023/10/14 02:22:09;;;;;;;8.50;5.13;;;;;;;25.18;42.96;97980.44;6923898;28;20289;-80
2023/10/14 02:25:32;;;;;;;6.87;5.07;;;;;;;24.92;43.80;98021.69;6954608;28;20222;-80
2023/10/14 02:28:54;;;;;;;6.93;5.40;;;;;;;25.30;43.01;98011.81;6960191;28;20198;-80
2023/10/14 02:32:20;;;;;;;7.73;5.10;;;;;;;25.32;42.96;97998.50;6945552;28;20213;-81
2023/10/14 02:35:41;;;;;;;7.50;5.57;;;;;;;25.32;42.88;98011.50;6920872;28;20583;-81
2023/10/14 02:39:11;;;;;;;8.40;5.17;;;;;;;25.24;43.33;97992.97;6931003;28;20359;-82
2023/10/14 02:42:33;;;;;;;6.07;5.17;;;;;;;25.22;43.24;97998.78;6933794;28;20257;-81
2023/10/14 02:46:00;;;;;;;11.10;5.83;;;;;;;25.23;42.99;98005.09;6952512;28;20318;-81
2023/10/14 02:49:24;;;;;;;6.90;5.33;;;;;;;25.30;42.86;97975.94;6944779;28;20233;-81
2023/10/14 02:52:49;;;;;;;8.50;5.20;;;;;;;25.09;43.62;97966.59;6915270;28;20685;-80
2023/10/14 02:56:21;;;;;;;9.27;5.57;;;;;;;25.11;43.27;97967.09;6922839;28;20215;-80
2023/10/14 02:59:48;;;;;;;11.20;5.67;;;;;;;25.12;43.66;97979.75;6944071;28;20263;-81
2023/10/14 03:03:13;;;;;;;9.33;5.40;;;;;;;24.74;43.70;97934.47;6943002;28;20571;-81
2023/10/14 03:06:46;;;;;;;6.13;5.10;;;;;;;25.19;43.30;97966.28;6943305;28;20299;-81
2023/10/14 03:10:12;;;;;;;7.50;5.27;;;;;;;25.66;42.13;97972.97;6922770;28;20684;-81
2023/10/14 03:13:34;;;;;;;6.33;5.17;;;;;;;24.87;43.66;97941.00;6944234;28;20562;-82
2023/10/14 03:16:55;;;;;;;8.30;5.47;;;;;;;25.37;42.34;97940.41;6943859;28;20757;-80
2023/10/14 03:20:34;;;;;;;9.07;6.30;;;;;;;25.49;42.57;97973.72;6943418;28;20343;-81
2023/10/14 03:23:57;;;;;;;7.53;5.57;;;;;;;25.33;42.59;97974.50;6944245;28;20209;-81
2023/10/14 03:27:20;;;;;;;6.70;4.77;;;;;;;25.42;42.63;97965.09;6941686;28;20229;-80
2023/10/14 03:30:45;;;;;;;8.63;5.33;;;;;;;25.44;42.58;97959.25;6945862;28;20211;-81
2023/10/14 03:34:10;;;;;;;6.90;5.10;;;;;;;25.43;42.47;97947.41;6943419;28;20235;-81
2023/10/14 03:37:36;;;;;;;7.87;5.30;;;;;;;25.62;41.98;97960.94;6944949;28;20227;-81
2023/10/14 03:41:10;;;;;;;8.67;4.97;;;;;;;25.71;41.51;97957.03;6944858;28;20874;-80
2023/10/14 03:44:33;;;;;;;9.63;5.37;;;;;;;25.05;43.05;97971.13;6925192;28;20204;-80
2023/10/14 03:48:00;;;;;;;8.87;5.47;;;;;;;25.26;42.75;97946.56;6945178;28;20585;-80
2023/10/14 03:51:24;;;;;;;8.80;5.40;;;;;;;25.49;42.37;97946.09;6944810;28;20195;-80
2023/10/14 03:54:46;;;;;;;8.77;5.30;;;;;;;25.47;42.38;97948.38;6944216;28;20223;-80
2023/10/14 03:58:09;;;;;;;8.03;5.20;;;;;;;25.57;42.11;97934.28;6946268;28;20231;-81
2023/10/14 04:01:43;;;;;;;7.60;4.97;;;;;;;25.75;41.59;97924.88;6937909;28;20265;-81
2023/10/14 04:05:10;;;;;;;6.97;4.57;;;;;;;25.11;43.40;97933.97;6936036;28;20233;-78
2023/10/14 04:08:39;;;;;;;8.63;5.63;;;;;;;24.90;43.90;97913.59;6927931;28;20282;-80
2023/10/14 04:12:01;;;;;;;9.73;5.53;;;;;;;24.80;44.37;97918.59;6936829;28;20212;-80
2023/10/14 04:15:34;;;;;;;7.80;5.27;;;;;;;24.90;44.08;97924.63;6941172;28;20226;-81
2023/10/14 04:19:06;;;;;;;8.60;6.03;;;;;;;24.97;44.31;97930.53;6944374;28;20216;-80
2023/10/14 04:22:31;;;;;;;7.47;5.03;;;;;;;24.64;45.14;97933.91;6944375;28;20220;-80
2023/10/14 04:26:02;;;;;;;7.43;5.47;;;;;;;24.65;45.40;97963.13;6946577;28;20283;-80
2023/10/14 04:29:34;;;;;;;10.03;5.20;;;;;;;24.68;45.06;97951.47;6943293;28;20200;-80
2023/10/14 04:33:04;;;;;;;11.27;5.97;;;;;;;24.98;44.45;97950.63;6946067;28;20210;-81
2023/10/14 04:36:39;;;;;;;7.13;5.10;;;;;;;25.19;44.17;97933.19;6939155;28;20783;-80
2023/10/14 04:40:15;;;;;;;9.30;5.87;;;;;;;25.23;44.21;97950.72;6947372;28;20208;-80
2023/10/14 04:44:00;;;;;;;8.53;5.30;;;;;;;24.82;44.30;97928.19;6943849;28;20201;-80
2023/10/14 04:47:35;;;;;;;6.30;5.63;;;;;;;25.16;44.28;98013.84;6942328;28;20225;-80
2023/10/14 04:50:58;;;;;;;7.37;5.03;;;;;;;24.64;48.57;98045.00;6945986;28;20259;-80
2023/10/14 04:54:20;;;;;;;14.33;6.07;;;;;;;23.57;54.86;98063.41;6946801;28;20214;-81
2023/10/14 04:57:41;;;;;;;7.87;5.30;;;;;;;23.24;56.41;98030.78;6936071;28;20604;-80
2023/10/14 05:01:03;;;;;;;10.50;5.60;;;;;;;22.59;58.94;98032.75;6943041;28;20209;-80
2023/10/14 05:04:30;;;;;;;10.37;5.50;;;;;;;22.75;58.15;98014.91;6936992;28;20206;-80
2023/10/14 05:07:58;;;;;;;8.90;5.63;;;;;;;22.72;58.12;98020.19;6949542;28;20685;-79
2023/10/14 05:11:21;;;;;;;7.10;5.60;;;;;;;22.77;58.68;98023.66;6952953;28;20746;-80
2023/10/14 05:14:43;;;;;;;7.20;5.80;;;;;;;22.80;58.19;98023.06;6960222;28;20245;-81
2023/10/14 05:18:04;;;;;;;6.77;4.90;;;;;;;22.29;59.32;98021.41;6949548;28;20571;-81
2023/10/14 05:21:36;;;;;;;6.70;5.33;;;;;;;21.80;61.35;98030.13;6943451;28;20215;-82
2023/10/14 05:25:04;;;;;;;9.10;5.23;;;;;;;21.94;61.43;98021.94;6936113;28;20774;-82
2023/10/14 05:28:29;;;;;;;8.87;5.60;;;;;;;21.76;61.68;98042.78;6936972;28;20199;-81
2023/10/14 05:31:52;;;;;;;6.37;4.80;;;;;;;21.57;62.81;98024.63;6942478;28;20212;-81
2023/10/14 05:35:13;;;;;;;6.37;5.17;;;;;;;22.05;62.05;98059.97;6945760;28;20235;-80
2023/10/14 05:38:35;;;;;;;8.63;5.23;;;;;;;22.04;62.16;98054.75;6947406;28;20268;-83
2023/10/14 05:41:59;;;;;;;10.80;5.30;;;;;;;22.83;59.93;98054.63;6946727;28;20740;-81
2023/10/14 05:45:21;;;;;;;7.20;4.93;;;;;;;22.05;61.20;98035.25;6951978;28;20265;-81
2023/10/14 05:48:42;;;;;;;7.23;5.60;;;;;;;22.53;61.11;98085.38;6945429;28;20218;-81
2023/10/14 05:52:04;;;;;;;8.87;5.77;;;;;;;22.43;61.01;98091.00;6936276;28;20205;-81
2023/10/14 05:55:26;;;;;;;9.53;5.10;;;;;;;22.86;59.92;98098.81;6941899;28;20369;-82
2023/10/14 05:58:52;;;;;;;11.30;5.63;;;;;;;23.10;58.65;98098.66;6946050;28;20400;-82
2023/10/14 06:02:13;;;;;;;5.73;4.27;;;;;;;23.11;57.51;98114.03;6942426;28;20220;-82
2023/10/14 06:05:35;;;;;;;7.27;5.70;;;;;;;22.85;58.23;98088.94;6946378;28;20576;-81
2023/10/14 06:09:00;;;;;;;7.70;5.60;;;;;;;22.07;60.80;98100.84;6946509;28;20265;-82
2023/10/14 06:12:23;;;;;;;7.87;5.00;;;;;;;22.99;58.28;98125.53;6946332;28;20781;-81
2023/10/14 06:15:46;;;;;;;7.33;5.50;;;;;;;22.97;57.79;98097.53;6946436;28;20226;-83
2023/10/14 06:19:10;;;;;;;8.47;5.47;;;;;;;22.79;56.99;98051.66;6945043;28;20229;-83
2023/10/14 06:22:32;;;;;;;6.93;5.13;;;;;;;23.18;57.45;98140.06;6952867;28;20236;-81
2023/10/14 06:25:53;;;;;;;9.37;5.67;;;;;;;22.86;57.31;98129.06;6965767;28;20250;-81
2023/10/14 06:29:17;;;;;;;6.80;5.13;;;;;;;22.71;58.44;98136.75;6935603;28;20201;-81
2023/10/14 06:32:40;;;;;;;8.73;5.30;;;;;;;23.07;57.06;98146.03;6935773;28;20211;-81
2023/10/14 06:36:04;;;;;;;6.23;5.50;;;;;;;22.90;56.68;98143.81;6941107;28;20617;-80
2023/10/14 06:39:27;;;;;;;7.07;4.70;;;;;;;22.84;55.81;98138.72;6935612;28;20640;-80
2023/10/14 06:42:49;;;;;;;6.77;4.83;;;;;;;23.18;55.40;98139.28;6943550;28;20209;-81
2023/10/14 06:46:11;;;;;;;10.40;5.33;;;;;;;23.16;55.16;98164.31;6939621;28;20226;-83
2023/10/14 06:49:36;;;;;;;9.87;5.13;;;;;;;23.33;55.04;98150.00;6943530;28;20213;-81
2023/10/14 06:52:58;;;;;;;7.47;5.20;;;;;;;23.19;55.05;98160.94;6943261;28;20200;-79
2023/10/14 06:56:21;;;;;;;8.97;5.00;;;;;;;23.20;54.25;98143.31;6944167;28;20226;-83
2023/10/14 07:00:11;;;;;;;8.40;4.57;;;;;;;23.07;53.54;98155.09;6946985;28;20255;-79
2023/10/14 07:03:33;;;;;;;6.20;4.20;;;;;;;23.07;53.58;98168.03;6949681;28;20228;-83
2023/10/14 07:06:58;;;;;;;7.23;4.10;;;;;;;23.26;52.89;98168.81;6930011;28;20231;-81
2023/10/14 07:10:27;;;;;;;6.37;3.93;;;;;;;22.94;53.60;98166.84;6930190;28;20216;-82
2023/10/14 07:13:49;;;;;;;5.83;4.10;;;;;;;22.72;52.74;98114.44;6946177;28;20186;-81
2023/10/14 07:17:12;;;;;;;6.73;3.90;;;;;;;23.19;52.96;98168.41;6946837;28;20267;-81
2023/10/14 07:20:34;;;;;;;6.97;4.50;;;;;;;23.66;51.49;98176.34;6946612;28;20224;-81
2023/10/14 07:23:58;;;;;;;11.17;4.40;;;;;;;23.58;51.15;98136.56;6932259;28;20222;-80
2023/10/14 07:27:20;;;;;;;6.97;4.20;;;;;;;24.10;50.99;98177.41;6936942;28;20219;-81
2023/10/14 07:30:46;;;;;;;8.27;4.17;;;;;;;23.94;51.34;98178.00;6950675;28;20206;-81
2023/10/14 07:34:10;;;;;;;4.70;3.83;;;;;;;23.91;50.53;98151.09;6941307;28;20213;-82
2023/10/14 07:37:33;;;;;;;8.27;3.60;;;;;;;25.06;47.73;98162.25;6941086;28;20232;-81
2023/10/14 07:41:01;;;;;;;8.13;3.60;;;;;;;25.54;46.60;98179.84;6936897;28;20247;-81
2023/10/14 07:44:23;;;;;;;4.13;3.30;;;;;;;25.76;46.23;98149.38;6941644;28;20195;-82
2023/10/14 07:47:45;;;;;;;7.43;3.60;;;;;;;25.00;46.64;98158.81;6944348;28;20204;-80
2023/10/14 07:51:08;;;;;;;8.03;3.53;;;;;;;25.50;46.18;98173.31;6939874;28;20235;-84
2023/10/14 07:54:30;;;;;;;5.03;3.00;;;;;;;25.71;45.27;98171.63;6949932;28;20215;-81
2023/10/14 07:57:55;;;;;;;6.03;3.27;;;;;;;25.42;45.37;98174.06;6924838;28;20221;-81
2023/10/14 08:01:17;;;;;;;7.63;3.40;;;;;;;25.40;45.17;98182.66;6944733;28;20254;-82
2023/10/14 08:04:38;;;;;;;7.73;3.67;;;;;;;25.60;44.35;98193.16;6937316;28;20676;-81
2023/10/14 08:08:05;;;;;;;4.10;2.93;;;;;;;25.64;44.21;98144.47;6941667;28;20286;-81
2023/10/14 08:11:36;;;;;;;5.47;2.83;;;;;;;26.50;42.59;98192.56;6941692;28;20220;-81
2023/10/14 08:14:59;;;;;;;5.87;2.60;;;;;;;26.58;42.65;98189.03;6928622;28;20721;-80
2023/10/14 08:18:23;;;;;;;3.93;2.80;;;;;;;26.19;42.48;98175.25;6939932;28;20248;-81
2023/10/14 08:21:45;;;;;;;4.37;2.70;;;;;;;25.58;43.58;98170.59;6915157;28;20207;-82
2023/10/14 08:25:10;;;;;;;3.80;2.60;;;;;;;25.58;43.98;98195.44;6934641;28;20283;-82
2023/10/14 08:28:32;;;;;;;5.33;2.63;;;;;;;25.73;44.01;98189.50;6942910;28;20203;-84
2023/10/14 08:31:55;;;;;;;5.43;3.13;;;;;;;25.32;44.84;98168.81;6937586;28;20365;-82
2023/10/14 08:35:17;;;;;;;6.63;2.73;;;;;;;25.24;44.36;98184.19;6946574;28;20839;-81
2023/10/14 08:38:39;;;;;;;7.30;2.90;;;;;;;25.04;44.42;98195.69;6941753;28;20229;-82
2023/10/14 08:42:04;;;;;;;5.30;2.57;;;;;;;25.23;44.49;98220.31;6947251;28;20299;-83
2023/10/14 08:45:26;;;;;;;5.20;2.90;;;;;;;25.41;44.65;98208.31;6939139;28;20594;-81
2023/10/14 08:48:50;;;;;;;5.97;2.87;;;;;;;26.34;42.30;98194.16;6943245;28;20211;-82
2023/10/14 08:52:16;;;;;;;3.17;2.43;;;;;;;25.90;42.05;98203.41;6941991;28;20229;-80
2023/10/14 08:55:39;;;;;;;4.97;2.50;;;;;;;27.58;39.01;98202.38;6962685;28;20245;-81
2023/10/14 08:59:01;;;;;;;3.47;2.33;;;;;;;28.76;37.31;98211.34;6935776;28;20282;-82
2023/10/14 09:02:25;;;;;;;3.80;2.33;;;;;;;27.35;38.50;98199.00;6933529;28;20202;-82
2023/10/14 09:05:48;;;;;;;3.27;2.20;;;;;;;26.72;39.96;98204.34;6946555;28;20284;-80
2023/10/14 09:09:16;;;;;;;4.03;2.47;;;;;;;26.46;40.29;98214.50;6937414;28;20199;-80
2023/10/14 09:12:39;;;;;;;6.23;2.60;;;;;;;26.92;40.37;98200.94;6942370;28;20199;-80
2023/10/14 09:16:01;;;;;;;4.43;2.40;;;;;;;26.89;39.47;98193.28;6940954;28;20284;-81
2023/10/14 09:19:23;;;;;;;3.87;3.00;;;;;;;26.68;41.18;98205.31;6939864;28;20757;-81
2023/10/14 09:22:47;;;;;;;6.90;3.70;;;;;;;25.05;45.76;98221.31;6942980;28;20210;-80
2023/10/14 09:26:08;;;;;;;6.90;1.70;;;;;;;24.44;47.48;98248.59;6947831;28;20586;-80
2023/10/14 09:29:31;;;;;;;3.67;1.40;;;;;;;24.30;48.43;98270.66;6940225;28;20237;-82
2023/10/14 09:32:53;;;;;;;2.93;1.87;;;;;;;23.39;52.56;98297.34;6928100;28;20229;-80
2023/10/14 09:36:15;;;;;;;18.83;6.77;;;;;;;22.53;55.64;98321.66;6951360;28;20271;-80
2023/10/14 09:39:44;;;;;;;21.00;10.63;;;;;;;22.25;57.34;98338.97;6944859;28;20710;-82
2023/10/14 09:43:06;;;;;;;4.23;1.60;;;;;;;22.07;57.73;98346.00;6946939;28;20194;-82
2023/10/14 09:46:29;;;;;;;6.23;2.07;;;;;;;21.86;58.28;98317.16;6938364;28;20240;-82
2023/10/14 09:49:52;;;;;;;2.50;1.83;;;;;;;21.64;59.77;98371.63;6947472;28;20209;-80
2023/10/14 09:53:14;;;;;;;1.13;1.07;;;;;;;21.86;57.14;98360.22;6945174;28;20281;-81
2023/10/14 09:56:40;;;;;;;3.40;1.30;;;;;;;21.81;56.43;98355.59;6940767;28;20231;-81
2023/10/14 10:00:01;;;;;;;1.70;1.30;;;;;;;21.42;57.01;98305.41;6941041;28;20213;-79
2023/10/14 10:03:23;;;;;;;2.50;1.70;;;;;;;21.64;58.34;98363.41;6963952;28;20266;-81
2023/10/14 10:06:51;;;;;;;1.53;1.43;;;;;;;21.50;58.42;98348.72;6950176;28;20230;-80
2023/10/14 10:10:16;;;;;;;1.80;1.40;;;;;;;21.61;58.45;98331.03;6930947;28;20249;-80
2023/10/14 10:13:39;;;;;;;1.80;1.57;;;;;;;21.45;59.41;98346.00;6938611;28;20709;-80
2023/10/14 10:17:08;;;;;;;2.57;1.77;;;;;;;21.38;59.35;98345.50;6930988;28;20701;-80
2023/10/14 10:20:35;;;;;;;2.33;1.60;;;;;;;21.30;60.13;98343.34;6950913;28;20231;-80
2023/10/14 10:24:01;;;;;;;1.67;1.57;;;;;;;21.72;59.61;98318.91;6945070;28;20639;-80
2023/10/14 10:27:22;;;;;;;1.60;1.50;;;;;;;21.46;60.42;98327.59;6949909;28;20220;-80
2023/10/14 10:30:47;;;;;;;2.53;1.90;;;;;;;21.99;59.26;98319.19;6942242;28;20310;-81
2023/10/14 10:34:08;;;;;;;2.23;2.03;;;;;;;21.83;59.39;98305.94;6938745;28;20227;-79
2023/10/14 10:37:30;;;;;;;2.93;2.53;;;;;;;21.81;59.82;98330.06;6944678;28;20249;-80
2023/10/14 10:41:19;;;;;;;2.23;2.03;;;;;;;22.16;60.37;98329.72;6927677;28;20220;-80
2023/10/14 10:44:42;;;;;;;3.80;2.13;;;;;;;21.87;59.91;98331.66;6930106;28;20571;-79
2023/10/14 10:48:07;;;;;;;2.87;1.80;;;;;;;22.46;58.17;98326.66;6930639;28;20216;-80
2023/10/14 10:51:29;;;;;;;2.60;1.87;;;;;;;21.99;56.96;98343.91;6934650;28;20245;-80
2023/10/14 10:54:51;;;;;;;1.70;1.60;;;;;;;22.18;56.36;98333.81;6940214;28;20339;-79
2023/10/14 10:58:13;;;;;;;1.40;1.30;;;;;;;22.42;55.17;98328.34;6942798;28;20205;-81
2023/10/14 11:01:34;;;;;;;1.50;1.40;;;;;;;22.42;54.62;98326.41;6942858;28;20369;-81
2023/10/14 11:04:57;;;;;;;3.47;1.80;;;;;;;22.35;55.73;98334.19;6933210;28;20225;-81
2023/10/14 11:08:19;;;;;;;1.10;1.10;;;;;;;22.44;55.63;98332.47;6943173;28;20268;-79
2023/10/14 11:11:40;;;;;;;2.07;1.60;;;;;;;22.26;55.78;98324.97;6931072;28;20197;-81
2023/10/14 11:15:07;;;;;;;1.37;1.33;;;;;;;22.10;55.91;98330.88;6915259;28;20223;-81
2023/10/14 11:18:30;;;;;;;1.30;1.30;;;;;;;21.91;55.87;98286.91;6943092;28;20203;-80
2023/10/14 11:21:54;;;;;;;1.70;1.40;;;;;;;21.82;56.52;98342.69;6933714;28;20315;-80
2023/10/14 11:25:18;;;;;;;1.70;1.60;;;;;;;21.79;56.67;98335.88;6930054;28;20223;-80
2023/10/14 11:28:42;;;;;;;2.17;1.97;;;;;;;22.11;56.54;98349.00;6942537;28;20215;-80
2023/10/14 11:32:05;;;;;;;2.10;1.70;;;;;;;21.69;56.42;98329.63;6941927;28;20333;-80
2023/10/14 11:35:28;;;;;;;2.63;2.10;;;;;;;21.46;58.46;98344.06;6945940;28;20239;-80
2023/10/14 11:38:52;;;;;;;2.23;2.00;;;;;;;21.29;58.98;98335.41;6940120;28;20228;-81
2023/10/14 11:42:13;;;;;;;4.03;1.80;;;;;;;21.30;58.80;98313.19;6944846;28;20563;-82
2023/10/14 11:45:40;;;;;;;5.33;2.20;;;;;;;21.23;59.78;98330.25;6945452;28;20222;-82
2023/10/14 11:49:02;;;;;;;2.20;2.00;;;;;;;21.19;60.18;98322.59;6943905;28;20198;-82
2023/10/14 11:52:24;;;;;;;5.90;2.30;;;;;;;21.17;61.04;98332.19;6942720;28;20230;-82
2023/10/14 11:55:48;;;;;;;2.20;2.00;;;;;;;21.41;60.13;98344.09;6958393;28;20312;-82
2023/10/14 11:59:12;;;;;;;3.40;2.10;;;;;;;21.12;60.53;98348.72;6937598;28;20218;-82
2023/10/14 12:02:33;;;;;;;2.57;2.10;;;;;;;21.09;60.42;98349.25;6933406;28;20211;-83
2023/10/14 12:05:57;;;;;;;2.20;2.00;;;;;;;21.08;61.22;98345.69;6942320;28;20297;-81
2023/10/14 12:09:19;;;;;;;1.70;1.60;;;;;;;20.71;60.74;98351.91;6923302;28;20654;-80
2023/10/14 12:12:42;;;;;;;1.63;1.53;;;;;;;20.39;61.40;98352.28;6942799;28;20234;-82
2023/10/14 12:16:06;;;;;;;1.90;1.80;;;;;;;20.54;61.37;98355.00;6946782;28;20297;-81
2023/10/14 12:19:27;;;;;;;2.10;2.00;;;;;;;20.27;62.65;98367.41;6954768;28;20226;-81
2023/10/14 12:22:49;;;;;;;3.07;1.80;;;;;;;20.59;61.08;98368.66;6961343;28;20294;-81
2023/10/14 12:26:13;;;;;;;2.50;1.70;;;;;;;20.03;61.96;98379.97;6949622;28;20220;-81
2023/10/14 12:29:36;;;;;;;1.50;1.40;;;;;;;20.15;61.88;98381.38;6921998;28;20342;-80
2023/10/14 12:33:04;;;;;;;1.93;1.73;;;;;;;20.03;62.40;98375.34;6920910;28;20205;-82
2023/10/14 12:36:27;;;;;;;3.23;1.80;;;;;;;19.85;62.38;98380.53;6947544;28;20278;-82
2023/10/14 12:39:53;;;;;;;2.33;1.87;;;;;;;20.32;62.02;98370.94;6946985;28;20223;-83
2023/10/14 12:43:15;;;;;;;6.67;5.30;;;;;;;20.28;61.93;98390.94;6948517;28;20192;-83
2023/10/14 12:46:40;;;;;;;4.13;1.93;;;;;;;19.51;61.38;98331.03;6940605;28;20779;-83
2023/10/14 12:50:03;;;;;;;1.80;1.70;;;;;;;19.88;61.79;98378.06;6930118;28;20214;-83
2023/10/14 12:53:24;;;;;;;2.60;2.13;;;;;;;19.62;62.86;98378.34;6940493;28;20604;-81
2023/10/14 12:56:46;;;;;;;2.57;1.83;;;;;;;19.63;62.61;98388.22;6952786;28;20256;-83
2023/10/14 13:00:17;;;;;;;2.03;1.93;;;;;;;19.52;62.28;98365.50;6948193;28;20365;-81
2023/10/14 13:03:42;;;;;;;3.97;2.90;;;;;;;19.78;62.96;98402.72;6945940;28;20691;-82
2023/10/14 13:07:08;;;;;;;3.00;2.57;;;;;;;19.68;62.58;98408.19;6944233;28;20240;-82
2023/10/14 13:10:44;;;;;;;4.20;2.20;;;;;;;19.65;62.61;98410.63;6933423;28;20232;-82
2023/10/14 13:14:06;;;;;;;3.97;3.57;;;;;;;20.13;62.08;98421.91;6806080;29;20210;-83
2023/10/14 13:17:28;;;;;;;4.83;4.43;;;;;;;19.98;62.19;98410.09;6783556;29;20318;-82
2023/10/14 13:20:51;;;;;;;3.47;3.17;;;;;;;20.32;61.45;98430.34;6797204;29;20235;-83
2023/10/14 13:24:12;;;;;;;4.23;2.63;;;;;;;20.34;62.62;98423.50;6796921;29;20250;-84
2023/10/14 13:27:35;;;;;;;2.57;2.33;;;;;;;20.29;61.88;98415.28;6816381;29;20603;-83
2023/10/14 13:30:58;;;;;;;4.70;4.27;;;;;;;20.67;61.11;98440.09;6806434;29;20263;-83
2023/10/14 13:34:19;;;;;;;3.97;3.67;;;;;;;20.21;61.52;98432.28;6812425;28;20340;-82
2023/10/14 13:37:43;;;;;;;3.63;3.37;;;;;;;20.29;61.96;98433.63;6836111;29;20384;-83
2023/10/14 13:41:04;;;;;;;3.17;2.97;;;;;;;20.19;62.14;98431.75;6846663;28;20230;-83
2023/10/14 13:44:26;;;;;;;5.27;4.73;;;;;;;20.27;61.40;98433.09;6835598;29;20341;-84
2023/10/14 13:47:49;;;;;;;5.83;5.23;;;;;;;20.65;60.53;98438.78;6820957;29;20215;-83
2023/10/14 13:51:12;;;;;;;6.57;5.97;;;;;;;20.31;59.60;98434.19;6874419;28;20204;-82
2023/10/14 13:54:35;;;;;;;1.90;1.63;;;;;;;20.21;59.18;98439.66;6929859;28;20294;-83
2023/10/14 13:57:56;;;;;;;2.23;1.90;;;;;;;20.42;58.79;98449.50;6948163;28;20295;-83
2023/10/14 14:01:18;;;;;;;2.27;1.63;;;;;;;19.74;57.29;98426.22;6952667;28;20272;-83
2023/10/14 14:04:39;;;;;;;2.63;2.43;;;;;;;20.07;55.54;98471.44;6943598;28;20286;-84
2023/10/14 14:08:01;;;;;;;2.30;2.03;;;;;;;19.90;56.00;98438.84;6920052;28;20280;-83
2023/10/14 14:11:24;;;;;;;1.60;1.50;;;;;;;19.79;57.25;98458.25;6969986;28;20285;-83
2023/10/14 14:14:46;;;;;;;1.90;1.70;;;;;;;19.96;56.94;98480.69;6946260;28;20937;-83
2023/10/14 14:18:07;;;;;;;2.07;1.87;;;;;;;19.81;58.28;98495.19;6948190;28;20241;-83
2023/10/14 14:21:29;;;;;;;1.63;1.53;;;;;;;19.73;58.37;98506.66;6936436;28;20338;-83
2023/10/14 14:24:50;;;;;;;1.60;1.50;;;;;;;19.96;58.06;98499.84;6917946;28;20247;-83
2023/10/14 14:28:13;;;;;;;1.50;1.40;;;;;;;19.82;56.53;98482.34;6919130;28;20288;-83
2023/10/14 14:31:35;;;;;;;2.00;1.77;;;;;;;19.20;54.21;98522.59;6920586;28;20289;-82
2023/10/14 14:34:57;;;;;;;1.90;1.53;;;;;;;19.24;53.34;98518.28;6923105;28;20227;-83
2023/10/14 14:38:21;;;;;;;9.67;6.30;;;;;;;18.74;54.52;98507.06;6959960;28;20276;-83
2023/10/14 14:41:44;;;;;;;2.90;2.10;;;;;;;18.91;54.83;98537.75;6927099;28;20327;-84
2023/10/14 14:45:09;;;;;;;3.57;2.27;;;;;;;19.32;55.16;98526.78;6941106;28;20349;-86
2023/10/14 14:48:31;;;;;;;5.37;2.73;;;;;;;19.22;55.19;98510.34;6941961;28;20211;-83
2023/10/14 14:51:52;;;;;;;3.13;2.37;;;;;;;19.45;56.27;98534.47;6929305;28;20708;-84
2023/10/14 14:55:15;;;;;;;2.23;2.03;;;;;;;19.68;55.98;98550.41;6944645;28;20386;-83
2023/10/14 14:58:36;;;;;;;3.27;2.10;;;;;;;19.90;54.29;98547.47;6942682;28;20570;-81
2023/10/14 15:02:01;;;;;;;2.40;2.07;;;;;;;19.23;55.09;98552.16;6933929;28;20256;-82
2023/10/14 15:05:24;;;;;;;3.03;2.20;;;;;;;19.43;55.74;98555.81;6935636;28;20253;-83
2023/10/14 15:08:47;;;;;;;4.50;2.40;;;;;;;19.23;54.28;98568.56;6931290;28;20207;-83
2023/10/14 15:12:11;;;;;;;3.30;2.10;;;;;;;19.29;52.72;98545.63;6937862;28;20725;-83
2023/10/14 15:15:35;;;;;;;3.20;1.93;;;;;;;19.48;52.89;98577.72;6939225;28;20261;-83
2023/10/14 15:18:59;;;;;;;3.07;2.10;;;;;;;19.01;52.63;98593.28;6944338;28;20570;-83
2023/10/14 15:22:21;;;;;;;4.90;2.83;;;;;;;18.98;53.97;98607.47;6933242;28;20233;-83
2023/10/14 15:25:44;;;;;;;4.70;2.47;;;;;;;18.99;52.62;98598.19;6929726;28;20230;-83
2023/10/14 15:29:05;;;;;;;4.47;2.80;;;;;;;18.38;54.73;98617.09;6923705;28;20584;-83
2023/10/14 15:32:27;;;;;;;5.17;2.63;;;;;;;18.51;54.47;98613.97;6931443;28;20285;-82
2023/10/14 15:35:50;;;;;;;8.90;2.67;;;;;;;18.99;52.43;98608.31;6932746;28;20254;-81
2023/10/14 15:39:15;;;;;;;3.40;2.57;;;;;;;18.92;51.94;98613.97;6951025;28;20301;-82
2023/10/14 15:42:37;;;;;;;5.37;2.77;;;;;;;18.58;52.29;98574.41;6945238;28;20323;-85
2023/10/14 15:45:59;;;;;;;5.87;2.93;;;;;;;18.62;53.43;98616.50;6959828;28;20310;-83
2023/10/14 15:49:21;;;;;;;11.07;4.50;;;;;;;19.01;51.19;98630.72;6944999;28;20230;-87
2023/10/14 15:52:46;;;;;;;6.60;2.90;;;;;;;18.18;50.66;98601.34;6933565;28;20200;-83
2023/10/14 15:56:15;;;;;;;4.57;2.57;;;;;;;18.10;51.50;98631.00;6935174;28;20307;-83
2023/10/14 15:59:36;;;;;;;4.73;3.00;;;;;;;18.51;50.22;98644.00;6941453;28;20291;-83
2023/10/14 16:03:00;;;;;;;7.07;2.90;;;;;;;17.67;51.53;98626.41;6931213;28;20258;-83